Time;durP1;ratioP1;P1;durP2;ratioP2;P2;SDS_P1;SDS_P2;PMS_P1;PMS_P2;Temp;Humidity;BMP_temperature;BMP_pressure;BME280_temperature;BME280_humidity;BME280_pressure;Samples;Min_cycle;Max_cycle;Signal;HPM_P1;HPM_P2
2022/06/28 18:31:07;;;;;;;6.28;1.35;;;21.20;97.30;;;;;;5092290;27;20121;-80
2022/06/28 18:33:33;;;;;;;8.23;0.90;;;21.00;97.40;;;;;;5071449;28;20082;-80
2022/06/28 18:35:59;;;;;;;3.95;0.90;;;21.00;97.60;;;;;;5072180;28;20044;-80
2022/06/28 18:38:25;;;;;;;6.45;1.20;;;20.90;97.70;;;;;;5084979;28;20581;-80
2022/06/28 18:40:51;;;;;;;4.40;0.82;;;20.80;97.80;;;;;;5095711;28;20082;-80
2022/06/28 18:43:17;;;;;;;4.65;0.85;;;20.80;98.10;;;;;;5058267;28;20063;-80
2022/06/28 18:45:43;;;;;;;4.35;0.90;;;20.70;98.50;;;;;;5053398;28;20044;-80
2022/06/28 18:48:08;;;;;;;6.30;0.85;;;20.70;98.90;;;;;;5047987;28;20094;-80
2022/06/28 18:50:35;;;;;;;4.30;0.90;;;20.60;99.10;;;;;;5081442;28;20052;-81
2022/06/28 18:53:01;;;;;;;3.85;0.77;;;20.60;99.40;;;;;;5069411;28;20050;-81
2022/06/28 18:55:27;;;;;;;6.50;1.10;;;20.50;99.50;;;;;;5087254;28;20105;-80
2022/06/28 18:57:53;;;;;;;5.45;1.25;;;20.50;99.50;;;;;;5074939;28;20060;-80
2022/06/28 19:00:21;;;;;;;7.22;1.33;;;20.50;99.50;;;;;;5070370;28;20043;-80
2022/06/28 19:02:48;;;;;;;7.40;1.05;;;20.40;99.60;;;;;;5071088;28;20059;-80
2022/06/28 19:05:14;;;;;;;4.32;1.35;;;20.40;99.90;;;;;;5069774;28;20499;-80
2022/06/28 19:07:41;;;;;;;4.90;1.10;;;20.50;99.90;;;;;;5066599;28;20717;-80
2022/06/28 19:10:08;;;;;;;5.25;1.25;;;20.40;99.90;;;;;;5055411;28;20480;-80
2022/06/28 19:12:35;;;;;;;5.72;1.35;;;20.40;99.90;;;;;;5083043;28;20171;-80
2022/06/28 19:15:03;;;;;;;5.03;1.20;;;20.40;99.70;;;;;;5068571;28;20060;-80
2022/06/28 19:17:31;;;;;;;7.32;1.75;;;20.30;99.50;;;;;;5068536;28;20039;-81
2022/06/28 19:19:57;;;;;;;5.20;0.95;;;20.30;99.40;;;;;;5058847;28;20612;-79
2022/06/28 19:22:23;;;;;;;6.57;1.30;;;20.20;99.60;;;;;;5065477;28;20148;-79
2022/06/28 19:24:52;;;;;;;5.55;1.15;;;20.10;99.70;;;;;;5065340;28;20060;-80
2022/06/28 19:27:17;;;;;;;6.90;1.10;;;20.00;99.90;;;;;;5043874;28;20069;-81
2022/06/28 19:29:48;;;;;;;6.65;1.40;;;19.90;99.90;;;;;;5080260;28;20059;-81
2022/06/28 19:32:16;;;;;;;6.07;1.38;;;19.80;99.90;;;;;;5093149;28;20055;-81
2022/06/28 19:34:42;;;;;;;5.32;1.25;;;19.70;99.90;;;;;;5089747;28;20051;-81
2022/06/28 19:37:08;;;;;;;4.97;1.27;;;19.70;99.90;;;;;;5076503;28;20783;-84
2022/06/28 19:39:35;;;;;;;6.55;1.10;;;19.50;99.90;;;;;;5073127;28;20131;-84
2022/06/28 19:42:01;;;;;;;5.53;1.20;;;19.50;99.90;;;;;;5035896;28;20058;-84
2022/06/28 19:44:27;;;;;;;3.75;0.82;;;19.40;99.90;;;;;;5037200;28;20048;-84
2022/06/28 19:46:54;;;;;;;4.68;1.25;;;19.30;99.90;;;;;;5066102;28;20033;-84
2022/06/28 19:49:23;;;;;;;6.40;1.15;;;19.20;99.90;;;;;;5047360;28;20072;-84
2022/06/28 19:51:51;;;;;;;7.05;1.48;;;19.10;99.90;;;;;;5075067;28;20186;-83
2022/06/28 19:54:17;;;;;;;5.65;1.27;;;19.00;99.90;;;;;;5045587;28;20048;-84
2022/06/28 19:56:43;;;;;;;5.97;1.35;;;19.00;99.90;;;;;;5059669;28;20068;-84
2022/06/28 19:59:10;;;;;;;5.32;1.17;;;18.90;99.90;;;;;;5048666;28;20104;-83
2022/06/28 20:01:39;;;;;;;8.48;1.08;;;18.80;99.90;;;;;;5048201;28;20089;-83
2022/06/28 20:04:05;;;;;;;4.00;1.25;;;18.80;99.90;;;;;;5063297;28;20114;-84
2022/06/28 20:06:31;;;;;;;4.93;1.08;;;18.70;99.90;;;;;;5057542;28;20531;-84
2022/06/28 20:09:18;;;;;;;5.85;1.33;;;18.60;99.90;;;;;;5050406;28;20055;-83
2022/06/28 20:11:44;;;;;;;11.00;2.17;;;18.30;99.90;;;;;;5067798;28;20048;-85
2022/06/28 20:14:10;;;;;;;6.80;1.23;;;18.50;99.90;;;;;;5077341;28;20040;-84
2022/06/28 20:16:36;;;;;;;4.97;1.17;;;18.50;99.90;;;;;;5045148;28;20106;-85
2022/06/28 20:19:02;;;;;;;6.90;1.20;;;18.30;99.90;;;;;;5065303;28;20525;-85
2022/06/28 20:21:28;;;;;;;7.18;1.20;;;18.30;99.90;;;;;;5059896;28;20043;-82
2022/06/28 20:23:56;;;;;;;5.93;1.20;;;18.50;99.90;;;;;;5080371;28;20048;-82
2022/06/28 20:26:23;;;;;;;10.45;1.40;;;18.10;99.90;;;;;;5060850;28;20040;-80
2022/06/28 20:28:50;;;;;;;5.45;1.60;;;18.10;99.90;;;;;;5054770;28;20578;-81
2022/06/28 20:31:16;;;;;;;7.85;2.00;;;18.00;99.90;;;;;;5074203;28;20056;-80
2022/06/28 20:33:42;;;;;;;9.18;2.22;;;17.90;99.90;;;;;;5071202;28;20040;-81
2022/06/28 20:36:08;;;;;;;8.50;2.30;;;17.90;99.90;;;;;;5079961;28;20055;-81
2022/06/28 20:38:34;;;;;;;5.00;1.45;;;17.80;99.90;;;;;;5047485;28;20044;-81
2022/06/28 20:43:45;;;;;;;5.93;1.45;;;17.70;99.90;;;;;;5068901;28;20060;-81
2022/06/28 20:46:11;;;;;;;6.28;1.73;;;17.60;99.90;;;;;;5057982;28;20080;-82
2022/06/28 20:48:37;;;;;;;6.18;1.35;;;17.60;99.90;;;;;;5078606;28;20107;-81
2022/06/28 20:51:03;;;;;;;6.13;1.25;;;17.50;99.90;;;;;;5055412;28;20048;-82
2022/06/28 20:53:29;;;;;;;7.28;1.52;;;17.40;99.90;;;;;;5029499;28;20055;-80
2022/06/28 20:55:55;;;;;;;7.60;1.88;;;17.30;99.90;;;;;;5042718;28;20152;-81
2022/06/28 20:58:20;;;;;;;4.20;1.10;;;17.30;99.90;;;;;;5050737;28;20049;-81
2022/06/28 21:00:49;;;;;;;6.28;1.50;;;17.20;99.90;;;;;;5021467;28;20522;-83
2022/06/28 21:03:15;;;;;;;6.78;1.65;;;17.20;99.90;;;;;;5058478;28;20130;-84
2022/06/28 21:05:40;;;;;;;6.97;1.75;;;17.20;99.90;;;;;;5036952;28;20110;-82
2022/06/28 21:08:07;;;;;;;3.85;1.48;;;17.10;99.90;;;;;;5038586;28;20056;-83
2022/06/28 21:10:34;;;;;;;5.90;1.52;;;17.00;99.90;;;;;;5053314;28;20494;-82
2022/06/28 21:13:00;;;;;;;5.53;1.70;;;17.00;99.90;;;;;;5049298;28;20036;-82
2022/06/28 21:15:25;;;;;;;8.15;1.80;;;17.10;99.90;;;;;;5032060;28;20055;-82
2022/06/28 21:17:52;;;;;;;10.57;1.63;;;16.90;99.90;;;;;;5042508;28;20056;-81
2022/06/28 21:20:18;;;;;;;3.53;1.80;;;16.90;99.90;;;;;;5039172;28;20066;-82
2022/06/28 21:22:47;;;;;;;10.05;2.35;;;16.90;99.90;;;;;;5035686;28;20153;-82
2022/06/28 21:25:13;;;;;;;6.50;1.80;;;16.80;99.90;;;;;;5040333;28;20045;-81
2022/06/28 21:27:39;;;;;;;7.97;1.75;;;16.80;99.90;;;;;;5053822;28;20041;-82
2022/06/28 21:30:05;;;;;;;6.43;1.58;;;16.70;99.90;;;;;;5036040;28;20062;-82
2022/06/28 21:32:34;;;;;;;3.58;1.45;;;16.80;99.90;;;;;;5051129;28;20103;-82
2022/06/28 21:35:00;;;;;;;4.43;1.65;;;16.70;99.90;;;;;;5059365;28;20127;-82
2022/06/28 21:37:25;;;;;;;6.25;1.70;;;16.70;99.90;;;;;;5061570;28;20040;-82
2022/06/28 21:39:51;;;;;;;7.45;1.70;;;16.70;99.90;;;;;;5045036;28;20247;-83
2022/06/28 21:42:16;;;;;;;6.93;1.70;;;16.90;99.90;;;;;;5048075;28;20116;-82
2022/06/28 21:44:42;;;;;;;7.25;2.00;;;16.70;99.90;;;;;;5042930;28;20051;-82
2022/06/28 21:47:08;;;;;;;6.20;1.83;;;16.70;99.90;;;;;;5063889;28;21846;-82
2022/06/28 21:49:33;;;;;;;6.03;2.08;;;16.80;99.90;;;;;;5044237;28;20563;-82
2022/06/28 21:51:59;;;;;;;8.77;1.95;;;16.90;99.90;;;;;;5045688;28;20167;-82
2022/06/28 21:54:25;;;;;;;3.95;1.83;;;16.70;99.90;;;;;;5044466;28;20044;-82
2022/06/28 21:56:51;;;;;;;6.25;2.10;;;16.70;99.90;;;;;;5044469;28;20044;-82
2022/06/28 21:59:16;;;;;;;3.80;1.73;;;16.60;99.90;;;;;;5042735;28;20056;-82
2022/06/28 22:01:43;;;;;;;7.00;2.08;;;16.60;99.90;;;;;;5063305;28;20044;-83
2022/06/28 22:04:10;;;;;;;6.20;2.45;;;16.60;99.90;;;;;;5041509;28;20127;-82
2022/06/28 22:06:36;;;;;;;7.35;2.20;;;16.60;99.90;;;;;;5065889;28;20083;-82
2022/06/28 22:09:05;;;;;;;6.32;2.45;;;16.60;99.90;;;;;;5041127;28;20059;-82
2022/06/28 22:11:34;;;;;;;7.57;2.20;;;16.60;99.90;;;;;;5043983;28;20055;-82
2022/06/28 22:14:12;;;;;;;10.02;2.45;;;16.80;99.90;;;;;;5048428;28;20095;-82
2022/06/28 22:16:38;;;;;;;9.05;2.70;;;16.50;99.90;;;;;;5042242;28;20044;-82
2022/06/28 22:19:05;;;;;;;9.27;2.50;;;16.60;99.90;;;;;;5040848;28;20051;-82
2022/06/28 22:21:32;;;;;;;6.35;2.13;;;16.50;99.90;;;;;;5061473;28;20051;-82
2022/06/28 22:23:59;;;;;;;5.55;2.70;;;16.40;99.90;;;;;;5061218;28;20043;-81
2022/06/28 22:26:25;;;;;;;6.82;2.35;;;16.40;99.90;;;;;;5043103;28;20078;-82
2022/06/28 22:28:52;;;;;;;7.07;2.53;;;16.40;99.90;;;;;;5063589;28;20562;-82
2022/06/28 22:31:19;;;;;;;5.50;2.35;;;16.40;99.90;;;;;;5039569;28;20525;-82
2022/06/28 22:33:46;;;;;;;6.18;2.70;;;16.30;99.90;;;;;;5065561;28;20045;-82
2022/06/28 22:36:12;;;;;;;7.22;2.97;;;16.30;99.90;;;;;;5046588;28;20044;-81
2022/06/28 22:38:38;;;;;;;8.75;3.10;;;16.30;99.90;;;;;;5063852;28;20482;-83
2022/06/28 22:41:05;;;;;;;6.90;2.90;;;16.50;99.90;;;;;;5059186;28;20060;-82
2022/06/28 22:43:34;;;;;;;9.07;3.15;;;16.30;99.90;;;;;;5042529;28;20060;-82
2022/06/28 22:46:03;;;;;;;7.00;2.97;;;16.20;99.90;;;;;;5045965;28;20044;-82
2022/06/28 22:48:30;;;;;;;6.05;2.97;;;16.20;99.90;;;;;;5064574;28;20123;-82
2022/06/28 22:50:56;;;;;;;8.23;3.60;;;16.30;99.90;;;;;;5059578;28;20791;-82
2022/06/28 22:53:25;;;;;;;7.40;2.95;;;16.20;99.90;;;;;;5063739;28;20053;-82
2022/06/28 22:55:51;;;;;;;8.70;3.15;;;16.20;99.90;;;;;;5063559;28;20106;-82
2022/06/28 22:58:17;;;;;;;8.02;3.70;;;16.20;99.90;;;;;;5044856;28;20061;-82
2022/06/28 23:00:42;;;;;;;6.05;3.00;;;16.20;99.90;;;;;;5064289;28;20051;-82
2022/06/28 23:03:08;;;;;;;8.43;3.65;;;16.10;99.90;;;;;;5043681;28;20040;-81
2022/06/28 23:05:34;;;;;;;7.28;3.75;;;16.10;99.90;;;;;;5067593;28;20132;-82
2022/06/28 23:07:59;;;;;;;7.28;3.60;;;16.10;99.90;;;;;;5067036;28;20036;-82
2022/06/28 23:13:09;;;;;;;7.65;3.35;;;16.10;99.90;;;;;;5057965;28;20045;-82
2022/06/28 23:15:36;;;;;;;9.20;3.90;;;16.00;99.90;;;;;;5053345;28;20047;-82
2022/06/28 23:18:04;;;;;;;6.72;3.22;;;16.00;99.90;;;;;;5066238;28;20150;-83
2022/06/28 23:20:30;;;;;;;5.20;3.35;;;16.00;99.90;;;;;;5050313;28;20049;-82
2022/06/28 23:22:57;;;;;;;10.40;3.45;;;16.00;99.90;;;;;;5048653;28;20068;-82
2022/06/28 23:25:23;;;;;;;7.10;3.70;;;16.00;99.90;;;;;;5048273;28;20047;-82
2022/06/28 23:27:49;;;;;;;10.20;3.53;;;15.90;99.90;;;;;;5050038;28;20048;-82
2022/06/28 23:30:15;;;;;;;10.07;4.10;;;15.90;99.90;;;;;;5038818;28;20111;-82
2022/06/28 23:32:43;;;;;;;7.65;3.50;;;15.90;99.90;;;;;;5039509;28;20087;-83
2022/06/28 23:35:09;;;;;;;8.95;4.10;;;15.80;99.90;;;;;;5045460;28;20163;-82
2022/06/28 23:37:35;;;;;;;6.68;3.10;;;15.90;99.90;;;;;;5055295;28;20817;-82
2022/06/28 23:40:01;;;;;;;10.25;3.60;;;15.70;99.90;;;;;;5033720;28;20917;-82
2022/06/28 23:42:27;;;;;;;6.15;3.50;;;15.80;99.90;;;;;;5051751;28;20040;-82
2022/06/28 23:44:53;;;;;;;7.25;3.55;;;15.70;99.90;;;;;;5034244;28;20785;-81
2022/06/28 23:47:19;;;;;;;7.70;3.20;;;15.70;99.90;;;;;;5038687;28;20128;-82
2022/06/28 23:49:44;;;;;;;8.15;4.18;;;15.60;99.90;;;;;;5043068;28;20114;-82
2022/06/28 23:52:10;;;;;;;5.78;3.95;;;15.60;99.90;;;;;;5040391;28;20425;-82
2022/06/28 23:57:21;;;;;;;7.50;3.80;;;15.60;99.90;;;;;;5033561;28;20052;-81
2022/06/28 23:59:46;;;;;;;8.13;4.07;;;15.60;99.90;;;;;;5052034;28;20040;-82
